sensor_id;sensor_type;location;lat;lon;timestamp;P1;durP1;ratioP1;P2;durP2;ratioP2
19621;SDS011;9958;33.196;-97.114;2022-10-24T00:01:09;2.72;;;0.88;;
19621;SDS011;9958;33.196;-97.114;2022-10-24T00:03:38;2.58;;;1.20;;
19621;SDS011;9958;33.196;-97.114;2022-10-24T00:06:08;4.38;;;0.90;;
19621;SDS011;9958;33.196;-97.114;2022-10-24T00:08:37;2.33;;;0.90;;
19621;SDS011;9958;33.196;-97.114;2022-10-24T00:11:07;1.27;;;0.80;;
19621;SDS011;9958;33.196;-97.114;2022-10-24T00:13:38;2.10;;;0.90;;
19621;SDS011;9958;33.196;-97.114;2022-10-24T00:16:07;5.00;;;1.00;;
19621;SDS011;9958;33.196;-97.114;2022-10-24T00:18:35;1.85;;;0.88;;
19621;SDS011;9958;33.196;-97.114;2022-10-24T00:21:03;1.58;;;0.90;;
19621;SDS011;9958;33.196;-97.114;2022-10-24T00:23:34;1.55;;;0.80;;
19621;SDS011;9958;33.196;-97.114;2022-10-24T00:26:04;1.17;;;0.73;;
19621;SDS011;9958;33.196;-97.114;2022-10-24T00:28:33;0.60;;;0.50;;
19621;SDS011;9958;33.196;-97.114;2022-10-24T00:31:02;1.42;;;0.80;;
19621;SDS011;9958;33.196;-97.114;2022-10-24T00:33:35;2.67;;;0.88;;
19621;SDS011;9958;33.196;-97.114;2022-10-24T00:36:03;2.22;;;0.80;;
19621;SDS011;9958;33.196;-97.114;2022-10-24T00:38:37;1.15;;;0.88;;
19621;SDS011;9958;33.196;-97.114;2022-10-24T00:41:06;1.20;;;0.75;;
19621;SDS011;9958;33.196;-97.114;2022-10-24T00:43:34;2.35;;;0.68;;
19621;SDS011;9958;33.196;-97.114;2022-10-24T00:46:03;1.15;;;0.80;;
19621;SDS011;9958;33.196;-97.114;2022-10-24T00:48:32;2.72;;;0.75;;
19621;SDS011;9958;33.196;-97.114;2022-10-24T00:51:04;0.68;;;0.47;;
19621;SDS011;9958;33.196;-97.114;2022-10-24T00:53:40;1.13;;;0.93;;
19621;SDS011;9958;33.196;-97.114;2022-10-24T00:56:11;3.03;;;1.17;;
19621;SDS011;9958;33.196;-97.114;2022-10-24T00:58:43;2.50;;;1.38;;
19621;SDS011;9958;33.196;-97.114;2022-10-24T01:01:12;1.00;;;0.60;;
19621;SDS011;9958;33.196;-97.114;2022-10-24T01:03:43;2.67;;;0.93;;
19621;SDS011;9958;33.196;-97.114;2022-10-24T01:06:19;2.60;;;0.70;;
19621;SDS011;9958;33.196;-97.114;2022-10-24T01:09:00;1.83;;;0.70;;
19621;SDS011;9958;33.196;-97.114;2022-10-24T01:11:39;1.98;;;1.17;;
19621;SDS011;9958;33.196;-97.114;2022-10-24T01:14:19;0.90;;;0.88;;
19621;SDS011;9958;33.196;-97.114;2022-10-24T01:16:55;1.63;;;0.70;;
19621;SDS011;9958;33.196;-97.114;2022-10-24T01:19:40;3.05;;;1.10;;
19621;SDS011;9958;33.196;-97.114;2022-10-24T01:22:31;1.17;;;0.65;;
19621;SDS011;9958;33.196;-97.114;2022-10-24T01:25:07;1.95;;;0.60;;
19621;SDS011;9958;33.196;-97.114;2022-10-24T01:27:47;1.50;;;0.70;;
19621;SDS011;9958;33.196;-97.114;2022-10-24T01:30:26;1.25;;;0.73;;
19621;SDS011;9958;33.196;-97.114;2022-10-24T01:32:59;2.90;;;1.13;;
19621;SDS011;9958;33.196;-97.114;2022-10-24T01:35:33;2.17;;;0.70;;
19621;SDS011;9958;33.196;-97.114;2022-10-24T01:38:09;1.83;;;0.65;;
19621;SDS011;9958;33.196;-97.114;2022-10-24T01:40:43;2.38;;;0.60;;
19621;SDS011;9958;33.196;-97.114;2022-10-24T01:43:18;1.60;;;1.00;;
19621;SDS011;9958;33.196;-97.114;2022-10-24T01:45:53;0.70;;;0.68;;
19621;SDS011;9958;33.196;-97.114;2022-10-24T01:48:25;2.10;;;1.00;;
19621;SDS011;9958;33.196;-97.114;2022-10-24T01:50:55;1.88;;;0.68;;
19621;SDS011;9958;33.196;-97.114;2022-10-24T01:53:26;2.42;;;0.85;;
19621;SDS011;9958;33.196;-97.114;2022-10-24T01:55:56;1.38;;;0.90;;
19621;SDS011;9958;33.196;-97.114;2022-10-24T01:58:25;1.80;;;0.80;;
19621;SDS011;9958;33.196;-97.114;2022-10-24T02:00:56;0.80;;;0.80;;
19621;SDS011;9958;33.196;-97.114;2022-10-24T02:03:29;2.28;;;0.77;;
19621;SDS011;9958;33.196;-97.114;2022-10-24T02:06:02;3.28;;;1.10;;
19621;SDS011;9958;33.196;-97.114;2022-10-24T02:08:35;2.45;;;0.60;;
19621;SDS011;9958;33.196;-97.114;2022-10-24T02:11:06;1.63;;;0.82;;
19621;SDS011;9958;33.196;-97.114;2022-10-24T02:13:37;3.03;;;0.77;;
19621;SDS011;9958;33.196;-97.114;2022-10-24T02:16:13;2.05;;;0.70;;
19621;SDS011;9958;33.196;-97.114;2022-10-24T02:18:43;1.73;;;0.63;;
19621;SDS011;9958;33.196;-97.114;2022-10-24T02:21:17;3.47;;;0.80;;
19621;SDS011;9958;33.196;-97.114;2022-10-24T02:23:54;1.20;;;0.60;;
19621;SDS011;9958;33.196;-97.114;2022-10-24T02:26:28;5.05;;;0.88;;
19621;SDS011;9958;33.196;-97.114;2022-10-24T02:29:03;2.40;;;0.80;;
19621;SDS011;9958;33.196;-97.114;2022-10-24T02:31:40;2.33;;;0.80;;
19621;SDS011;9958;33.196;-97.114;2022-10-24T02:34:13;0.85;;;0.70;;
19621;SDS011;9958;33.196;-97.114;2022-10-24T02:36:43;3.17;;;0.70;;
19621;SDS011;9958;33.196;-97.114;2022-10-24T02:39:14;2.90;;;0.80;;
19621;SDS011;9958;33.196;-97.114;2022-10-24T02:41:43;2.95;;;0.70;;
19621;SDS011;9958;33.196;-97.114;2022-10-24T02:44:14;0.80;;;0.80;;
19621;SDS011;9958;33.196;-97.114;2022-10-24T02:46:45;2.40;;;0.90;;
19621;SDS011;9958;33.196;-97.114;2022-10-24T02:49:16;3.72;;;0.82;;
19621;SDS011;9958;33.196;-97.114;2022-10-24T02:51:45;3.63;;;0.50;;
19621;SDS011;9958;33.196;-97.114;2022-10-24T02:54:14;0.85;;;0.70;;
19621;SDS011;9958;33.196;-97.114;2022-10-24T02:56:44;0.80;;;0.80;;
19621;SDS011;9958;33.196;-97.114;2022-10-24T02:59:14;1.55;;;0.70;;
19621;SDS011;9958;33.196;-97.114;2022-10-24T03:01:42;1.85;;;0.85;;
19621;SDS011;9958;33.196;-97.114;2022-10-24T03:04:12;2.28;;;0.70;;
19621;SDS011;9958;33.196;-97.114;2022-10-24T03:06:40;1.95;;;0.60;;
19621;SDS011;9958;33.196;-97.114;2022-10-24T03:09:09;0.68;;;0.65;;
19621;SDS011;9958;33.196;-97.114;2022-10-24T03:11:37;0.88;;;0.50;;
19621;SDS011;9958;33.196;-97.114;2022-10-24T03:14:06;1.58;;;0.68;;
19621;SDS011;9958;33.196;-97.114;2022-10-24T03:16:34;1.60;;;0.63;;
19621;SDS011;9958;33.196;-97.114;2022-10-24T03:19:05;2.00;;;0.77;;
19621;SDS011;9958;33.196;-97.114;2022-10-24T03:21:35;1.15;;;0.88;;
19621;SDS011;9958;33.196;-97.114;2022-10-24T03:24:04;1.42;;;0.80;;
19621;SDS011;9958;33.196;-97.114;2022-10-24T03:26:33;1.65;;;0.60;;
19621;SDS011;9958;33.196;-97.114;2022-10-24T03:29:01;1.48;;;0.57;;
19621;SDS011;9958;33.196;-97.114;2022-10-24T03:31:30;2.47;;;0.90;;
19621;SDS011;9958;33.196;-97.114;2022-10-24T03:33:59;1.17;;;0.65;;
19621;SDS011;9958;33.196;-97.114;2022-10-24T03:36:27;2.13;;;0.60;;
19621;SDS011;9958;33.196;-97.114;2022-10-24T03:38:57;1.55;;;0.50;;
19621;SDS011;9958;33.196;-97.114;2022-10-24T03:41:25;2.85;;;0.68;;
19621;SDS011;9958;33.196;-97.114;2022-10-24T03:43:53;1.75;;;0.63;;
19621;SDS011;9958;33.196;-97.114;2022-10-24T03:46:21;2.33;;;0.70;;
19621;SDS011;9958;33.196;-97.114;2022-10-24T03:48:50;1.95;;;0.80;;
19621;SDS011;9958;33.196;-97.114;2022-10-24T03:51:18;2.08;;;0.70;;
19621;SDS011;9958;33.196;-97.114;2022-10-24T03:53:46;2.63;;;0.65;;
19621;SDS011;9958;33.196;-97.114;2022-10-24T03:56:16;1.10;;;0.60;;
19621;SDS011;9958;33.196;-97.114;2022-10-24T03:58:44;1.45;;;0.85;;
19621;SDS011;9958;33.196;-97.114;2022-10-24T04:01:13;0.93;;;0.50;;
19621;SDS011;9958;33.196;-97.114;2022-10-24T04:03:42;1.45;;;0.60;;
19621;SDS011;9958;33.196;-97.114;2022-10-24T04:06:11;2.95;;;0.63;;
19621;SDS011;9958;33.196;-97.114;2022-10-24T04:08:39;1.15;;;0.50;;
19621;SDS011;9958;33.196;-97.114;2022-10-24T04:11:08;1.67;;;0.47;;
19621;SDS011;9958;33.196;-97.114;2022-10-24T04:13:37;1.85;;;0.77;;
19621;SDS011;9958;33.196;-97.114;2022-10-24T04:16:06;1.00;;;0.52;;
19621;SDS011;9958;33.196;-97.114;2022-10-24T04:18:35;3.83;;;0.75;;
19621;SDS011;9958;33.196;-97.114;2022-10-24T04:21:03;0.47;;;0.47;;
19621;SDS011;9958;33.196;-97.114;2022-10-24T04:23:32;0.70;;;0.57;;
19621;SDS011;9958;33.196;-97.114;2022-10-24T04:26:05;1.15;;;0.60;;
19621;SDS011;9958;33.196;-97.114;2022-10-24T04:28:33;1.25;;;1.00;;
19621;SDS011;9958;33.196;-97.114;2022-10-24T04:31:03;1.95;;;0.50;;
19621;SDS011;9958;33.196;-97.114;2022-10-24T04:33:32;0.57;;;0.57;;
19621;SDS011;9958;33.196;-97.114;2022-10-24T04:36:00;3.42;;;0.90;;
19621;SDS011;9958;33.196;-97.114;2022-10-24T04:38:29;1.48;;;0.80;;
19621;SDS011;9958;33.196;-97.114;2022-10-24T04:40:57;1.98;;;0.75;;
19621;SDS011;9958;33.196;-97.114;2022-10-24T04:43:26;1.60;;;0.85;;
19621;SDS011;9958;33.196;-97.114;2022-10-24T04:45:54;2.58;;;1.00;;
19621;SDS011;9958;33.196;-97.114;2022-10-24T04:48:24;1.67;;;0.50;;
19621;SDS011;9958;33.196;-97.114;2022-10-24T04:50:52;2.95;;;0.60;;
19621;SDS011;9958;33.196;-97.114;2022-10-24T04:53:20;1.33;;;0.63;;
19621;SDS011;9958;33.196;-97.114;2022-10-24T04:55:48;1.60;;;0.65;;
19621;SDS011;9958;33.196;-97.114;2022-10-24T04:58:17;4.60;;;1.08;;
19621;SDS011;9958;33.196;-97.114;2022-10-24T05:00:45;4.57;;;0.77;;
19621;SDS011;9958;33.196;-97.114;2022-10-24T05:03:14;2.15;;;0.80;;
19621;SDS011;9958;33.196;-97.114;2022-10-24T05:05:44;1.85;;;0.70;;
19621;SDS011;9958;33.196;-97.114;2022-10-24T05:08:13;2.80;;;0.85;;
19621;SDS011;9958;33.196;-97.114;2022-10-24T05:10:41;2.85;;;1.08;;
19621;SDS011;9958;33.196;-97.114;2022-10-24T05:13:10;1.35;;;0.70;;
19621;SDS011;9958;33.196;-97.114;2022-10-24T05:15:38;2.72;;;1.38;;
19621;SDS011;9958;33.196;-97.114;2022-10-24T05:18:07;1.15;;;0.85;;
19621;SDS011;9958;33.196;-97.114;2022-10-24T05:20:35;5.15;;;0.93;;
19621;SDS011;9958;33.196;-97.114;2022-10-24T05:23:05;2.10;;;0.60;;
19621;SDS011;9958;33.196;-97.114;2022-10-24T05:25:33;0.50;;;0.50;;
19621;SDS011;9958;33.196;-97.114;2022-10-24T05:28:02;0.93;;;0.63;;
19621;SDS011;9958;33.196;-97.114;2022-10-24T05:30:30;0.50;;;0.50;;
19621;SDS011;9958;33.196;-97.114;2022-10-24T05:32:58;2.13;;;0.60;;
19621;SDS011;9958;33.196;-97.114;2022-10-24T05:35:27;1.95;;;0.65;;
19621;SDS011;9958;33.196;-97.114;2022-10-24T05:37:55;1.60;;;0.70;;
19621;SDS011;9958;33.196;-97.114;2022-10-24T05:40:25;2.53;;;0.70;;
19621;SDS011;9958;33.196;-97.114;2022-10-24T05:42:53;4.85;;;0.63;;
19621;SDS011;9958;33.196;-97.114;2022-10-24T05:45:21;3.55;;;0.93;;
19621;SDS011;9958;33.196;-97.114;2022-10-24T05:47:49;1.95;;;0.80;;
19621;SDS011;9958;33.196;-97.114;2022-10-24T05:50:18;1.38;;;0.70;;
19621;SDS011;9958;33.196;-97.114;2022-10-24T05:52:46;1.95;;;0.75;;
19621;SDS011;9958;33.196;-97.114;2022-10-24T05:55:14;5.03;;;0.70;;
19621;SDS011;9958;33.196;-97.114;2022-10-24T05:57:44;2.88;;;0.80;;
19621;SDS011;9958;33.196;-97.114;2022-10-24T06:00:13;1.65;;;0.60;;
19621;SDS011;9958;33.196;-97.114;2022-10-24T06:02:42;2.70;;;1.02;;
19621;SDS011;9958;33.196;-97.114;2022-10-24T06:05:11;0.85;;;0.70;;
19621;SDS011;9958;33.196;-97.114;2022-10-24T06:07:39;0.68;;;0.68;;
19621;SDS011;9958;33.196;-97.114;2022-10-24T06:10:08;1.73;;;0.63;;
19621;SDS011;9958;33.196;-97.114;2022-10-24T06:12:37;1.85;;;0.73;;
19621;SDS011;9958;33.196;-97.114;2022-10-24T06:15:09;1.95;;;0.63;;
19621;SDS011;9958;33.196;-97.114;2022-10-24T06:17:38;1.20;;;0.73;;
19621;SDS011;9958;33.196;-97.114;2022-10-24T06:20:07;3.88;;;0.90;;
19621;SDS011;9958;33.196;-97.114;2022-10-24T06:22:36;1.67;;;0.93;;
19621;SDS011;9958;33.196;-97.114;2022-10-24T06:25:04;2.30;;;0.95;;
19621;SDS011;9958;33.196;-97.114;2022-10-24T06:27:33;2.05;;;1.35;;
19621;SDS011;9958;33.196;-97.114;2022-10-24T06:30:01;0.77;;;0.73;;
19621;SDS011;9958;33.196;-97.114;2022-10-24T06:32:32;0.70;;;0.70;;
19621;SDS011;9958;33.196;-97.114;2022-10-24T06:35:00;1.15;;;0.80;;
19621;SDS011;9958;33.196;-97.114;2022-10-24T06:37:28;3.67;;;1.00;;
19621;SDS011;9958;33.196;-97.114;2022-10-24T06:39:57;1.20;;;0.68;;
19621;SDS011;9958;33.196;-97.114;2022-10-24T06:42:25;1.10;;;0.70;;
19621;SDS011;9958;33.196;-97.114;2022-10-24T06:44:53;5.25;;;1.05;;
19621;SDS011;9958;33.196;-97.114;2022-10-24T06:47:21;2.63;;;1.17;;
19621;SDS011;9958;33.196;-97.114;2022-10-24T06:49:51;0.88;;;0.88;;
19621;SDS011;9958;33.196;-97.114;2022-10-24T06:52:19;0.88;;;0.80;;
19621;SDS011;9958;33.196;-97.114;2022-10-24T06:54:47;0.98;;;0.95;;
19621;SDS011;9958;33.196;-97.114;2022-10-24T06:57:16;2.03;;;0.88;;
19621;SDS011;9958;33.196;-97.114;2022-10-24T06:59:44;2.03;;;1.05;;
19621;SDS011;9958;33.196;-97.114;2022-10-24T07:02:13;0.80;;;0.80;;
19621;SDS011;9958;33.196;-97.114;2022-10-24T07:04:42;1.40;;;0.88;;
19621;SDS011;9958;33.196;-97.114;2022-10-24T07:07:14;3.05;;;1.17;;
19621;SDS011;9958;33.196;-97.114;2022-10-24T07:09:43;4.20;;;1.20;;
19621;SDS011;9958;33.196;-97.114;2022-10-24T07:12:17;4.10;;;1.35;;
19621;SDS011;9958;33.196;-97.114;2022-10-24T07:14:45;2.78;;;1.20;;
19621;SDS011;9958;33.196;-97.114;2022-10-24T07:17:14;1.45;;;1.20;;
19621;SDS011;9958;33.196;-97.114;2022-10-24T07:19:42;2.55;;;1.20;;
19621;SDS011;9958;33.196;-97.114;2022-10-24T07:22:10;1.90;;;0.70;;
19621;SDS011;9958;33.196;-97.114;2022-10-24T07:24:40;2.92;;;1.15;;
19621;SDS011;9958;33.196;-97.114;2022-10-24T07:27:10;1.30;;;1.02;;
19621;SDS011;9958;33.196;-97.114;2022-10-24T07:29:38;4.13;;;1.15;;
19621;SDS011;9958;33.196;-97.114;2022-10-24T07:32:07;2.60;;;1.17;;
19621;SDS011;9958;33.196;-97.114;2022-10-24T07:34:35;2.03;;;1.00;;
19621;SDS011;9958;33.196;-97.114;2022-10-24T07:37:05;3.33;;;1.00;;
19621;SDS011;9958;33.196;-97.114;2022-10-24T07:39:33;1.55;;;0.95;;
19621;SDS011;9958;33.196;-97.114;2022-10-24T07:42:03;1.92;;;1.13;;
19621;SDS011;9958;33.196;-97.114;2022-10-24T07:44:31;1.42;;;0.90;;
19621;SDS011;9958;33.196;-97.114;2022-10-24T07:47:00;5.65;;;1.20;;
19621;SDS011;9958;33.196;-97.114;2022-10-24T07:49:31;1.17;;;1.05;;
19621;SDS011;9958;33.196;-97.114;2022-10-24T07:52:00;0.98;;;0.90;;
19621;SDS011;9958;33.196;-97.114;2022-10-24T07:54:28;1.92;;;1.02;;
19621;SDS011;9958;33.196;-97.114;2022-10-24T07:56:56;2.95;;;1.08;;
19621;SDS011;9958;33.196;-97.114;2022-10-24T07:59:26;1.38;;;1.00;;
19621;SDS011;9958;33.196;-97.114;2022-10-24T08:01:55;3.13;;;1.58;;
19621;SDS011;9958;33.196;-97.114;2022-10-24T08:04:23;1.70;;;0.90;;
19621;SDS011;9958;33.196;-97.114;2022-10-24T08:06:53;1.45;;;0.77;;
19621;SDS011;9958;33.196;-97.114;2022-10-24T08:09:22;3.13;;;1.08;;
19621;SDS011;9958;33.196;-97.114;2022-10-24T08:11:51;1.20;;;1.10;;
19621;SDS011;9958;33.196;-97.114;2022-10-24T08:14:19;2.15;;;1.17;;
19621;SDS011;9958;33.196;-97.114;2022-10-24T08:16:49;1.65;;;1.10;;
19621;SDS011;9958;33.196;-97.114;2022-10-24T08:19:17;2.78;;;1.00;;
19621;SDS011;9958;33.196;-97.114;2022-10-24T08:21:45;3.28;;;0.90;;
19621;SDS011;9958;33.196;-97.114;2022-10-24T08:24:15;1.80;;;0.80;;
19621;SDS011;9958;33.196;-97.114;2022-10-24T08:26:43;4.43;;;0.98;;
19621;SDS011;9958;33.196;-97.114;2022-10-24T08:29:11;2.85;;;1.15;;
19621;SDS011;9958;33.196;-97.114;2022-10-24T08:31:49;1.58;;;0.70;;
19621;SDS011;9958;33.196;-97.114;2022-10-24T08:34:18;3.28;;;1.10;;
19621;SDS011;9958;33.196;-97.114;2022-10-24T08:36:47;1.13;;;0.80;;
19621;SDS011;9958;33.196;-97.114;2022-10-24T08:39:16;4.53;;;0.90;;
19621;SDS011;9958;33.196;-97.114;2022-10-24T08:41:45;2.88;;;1.00;;
19621;SDS011;9958;33.196;-97.114;2022-10-24T08:44:20;3.55;;;1.20;;
19621;SDS011;9958;33.196;-97.114;2022-10-24T08:46:56;2.35;;;1.20;;
19621;SDS011;9958;33.196;-97.114;2022-10-24T08:49:29;0.98;;;0.90;;
19621;SDS011;9958;33.196;-97.114;2022-10-24T08:52:06;1.73;;;1.08;;
19621;SDS011;9958;33.196;-97.114;2022-10-24T08:54:43;4.45;;;1.15;;
19621;SDS011;9958;33.196;-97.114;2022-10-24T08:57:16;2.63;;;1.05;;
19621;SDS011;9958;33.196;-97.114;2022-10-24T08:59:47;2.90;;;1.30;;
19621;SDS011;9958;33.196;-97.114;2022-10-24T09:02:20;2.22;;;0.98;;
19621;SDS011;9958;33.196;-97.114;2022-10-24T09:04:52;4.55;;;1.75;;
19621;SDS011;9958;33.196;-97.114;2022-10-24T09:07:24;2.03;;;1.60;;
19621;SDS011;9958;33.196;-97.114;2022-10-24T09:09:56;2.15;;;1.20;;
19621;SDS011;9958;33.196;-97.114;2022-10-24T09:12:31;6.13;;;1.77;;
19621;SDS011;9958;33.196;-97.114;2022-10-24T09:15:03;2.38;;;1.20;;
19621;SDS011;9958;33.196;-97.114;2022-10-24T09:17:42;2.53;;;1.67;;
19621;SDS011;9958;33.196;-97.114;2022-10-24T09:20:18;3.58;;;1.77;;
19621;SDS011;9958;33.196;-97.114;2022-10-24T09:22:50;4.05;;;2.22;;
19621;SDS011;9958;33.196;-97.114;2022-10-24T09:25:20;3.80;;;1.65;;
19621;SDS011;9958;33.196;-97.114;2022-10-24T09:27:50;3.83;;;1.70;;
19621;SDS011;9958;33.196;-97.114;2022-10-24T09:30:19;2.03;;;1.52;;
19621;SDS011;9958;33.196;-97.114;2022-10-24T09:32:51;4.63;;;1.50;;
19621;SDS011;9958;33.196;-97.114;2022-10-24T09:35:21;1.80;;;1.70;;
19621;SDS011;9958;33.196;-97.114;2022-10-24T09:37:51;3.90;;;1.80;;
19621;SDS011;9958;33.196;-97.114;2022-10-24T09:40:21;3.28;;;1.75;;
19621;SDS011;9958;33.196;-97.114;2022-10-24T09:42:52;2.53;;;2.28;;
19621;SDS011;9958;33.196;-97.114;2022-10-24T09:45:29;1.85;;;1.60;;
19621;SDS011;9958;33.196;-97.114;2022-10-24T09:48:05;3.33;;;1.70;;
19621;SDS011;9958;33.196;-97.114;2022-10-24T09:50:43;3.78;;;1.88;;
19621;SDS011;9958;33.196;-97.114;2022-10-24T09:53:23;3.45;;;2.20;;
19621;SDS011;9958;33.196;-97.114;2022-10-24T09:55:55;4.45;;;1.60;;
19621;SDS011;9958;33.196;-97.114;2022-10-24T09:58:25;5.55;;;1.77;;
19621;SDS011;9958;33.196;-97.114;2022-10-24T10:01:02;1.63;;;1.52;;
19621;SDS011;9958;33.196;-97.114;2022-10-24T10:03:34;6.95;;;2.10;;
19621;SDS011;9958;33.196;-97.114;2022-10-24T10:06:02;2.65;;;2.00;;
19621;SDS011;9958;33.196;-97.114;2022-10-24T10:08:41;3.42;;;2.17;;
19621;SDS011;9958;33.196;-97.114;2022-10-24T10:11:16;4.47;;;2.08;;
19621;SDS011;9958;33.196;-97.114;2022-10-24T10:13:55;2.38;;;2.00;;
19621;SDS011;9958;33.196;-97.114;2022-10-24T10:16:27;5.55;;;2.25;;
19621;SDS011;9958;33.196;-97.114;2022-10-24T10:19:01;2.50;;;1.92;;
19621;SDS011;9958;33.196;-97.114;2022-10-24T10:21:51;2.03;;;1.70;;
19621;SDS011;9958;33.196;-97.114;2022-10-24T10:24:23;6.55;;;2.28;;
19621;SDS011;9958;33.196;-97.114;2022-10-24T10:26:54;3.50;;;2.40;;
19621;SDS011;9958;33.196;-97.114;2022-10-24T10:29:22;2.75;;;2.15;;
19621;SDS011;9958;33.196;-97.114;2022-10-24T10:31:52;4.10;;;2.38;;
19621;SDS011;9958;33.196;-97.114;2022-10-24T10:34:29;3.75;;;2.58;;
19621;SDS011;9958;33.196;-97.114;2022-10-24T10:37:12;3.15;;;2.78;;
19621;SDS011;9958;33.196;-97.114;2022-10-24T10:39:57;3.78;;;2.53;;
19621;SDS011;9958;33.196;-97.114;2022-10-24T10:42:41;2.80;;;2.15;;
19621;SDS011;9958;33.196;-97.114;2022-10-24T10:45:21;3.90;;;2.70;;
19621;SDS011;9958;33.196;-97.114;2022-10-24T10:48:01;4.25;;;2.50;;
19621;SDS011;9958;33.196;-97.114;2022-10-24T10:50:43;4.85;;;2.75;;
19621;SDS011;9958;33.196;-97.114;2022-10-24T10:53:19;3.10;;;2.60;;
19621;SDS011;9958;33.196;-97.114;2022-10-24T10:56:05;4.63;;;2.88;;
19621;SDS011;9958;33.196;-97.114;2022-10-24T10:58:43;4.35;;;2.38;;
19621;SDS011;9958;33.196;-97.114;2022-10-24T11:01:21;6.32;;;2.95;;
19621;SDS011;9958;33.196;-97.114;2022-10-24T11:03:58;3.53;;;2.75;;
19621;SDS011;9958;33.196;-97.114;2022-10-24T11:06:39;4.43;;;2.88;;
19621;SDS011;9958;33.196;-97.114;2022-10-24T11:09:26;6.30;;;2.85;;
19621;SDS011;9958;33.196;-97.114;2022-10-24T11:12:04;7.82;;;3.28;;
19621;SDS011;9958;33.196;-97.114;2022-10-24T11:14:38;4.93;;;2.60;;
19621;SDS011;9958;33.196;-97.114;2022-10-24T11:17:10;3.58;;;2.67;;
19621;SDS011;9958;33.196;-97.114;2022-10-24T11:19:54;7.47;;;3.00;;
19621;SDS011;9958;33.196;-97.114;2022-10-24T11:22:33;7.13;;;3.05;;
19621;SDS011;9958;33.196;-97.114;2022-10-24T11:25:07;4.60;;;3.05;;
19621;SDS011;9958;33.196;-97.114;2022-10-24T11:27:48;6.05;;;3.10;;
19621;SDS011;9958;33.196;-97.114;2022-10-24T11:30:19;3.22;;;2.80;;
19621;SDS011;9958;33.196;-97.114;2022-10-24T11:32:58;5.40;;;3.00;;
19621;SDS011;9958;33.196;-97.114;2022-10-24T11:35:29;4.85;;;3.08;;
19621;SDS011;9958;33.196;-97.114;2022-10-24T11:38:00;4.20;;;2.55;;
19621;SDS011;9958;33.196;-97.114;2022-10-24T11:40:33;3.38;;;2.63;;
19621;SDS011;9958;33.196;-97.114;2022-10-24T11:43:05;7.28;;;2.40;;
19621;SDS011;9958;33.196;-97.114;2022-10-24T11:45:43;5.35;;;2.90;;
19621;SDS011;9958;33.196;-97.114;2022-10-24T11:48:16;4.65;;;2.95;;
19621;SDS011;9958;33.196;-97.114;2022-10-24T11:50:48;5.22;;;3.05;;
19621;SDS011;9958;33.196;-97.114;2022-10-24T11:53:35;6.00;;;3.30;;
19621;SDS011;9958;33.196;-97.114;2022-10-24T11:56:14;5.00;;;3.05;;
19621;SDS011;9958;33.196;-97.114;2022-10-24T11:58:48;7.80;;;3.85;;
19621;SDS011;9958;33.196;-97.114;2022-10-24T12:01:29;6.53;;;2.90;;
19621;SDS011;9958;33.196;-97.114;2022-10-24T12:04:27;3.70;;;2.75;;
19621;SDS011;9958;33.196;-97.114;2022-10-24T12:07:38;4.82;;;2.78;;
19621;SDS011;9958;33.196;-97.114;2022-10-24T12:10:47;5.18;;;3.05;;
19621;SDS011;9958;33.196;-97.114;2022-10-24T12:13:35;3.75;;;2.60;;
19621;SDS011;9958;33.196;-97.114;2022-10-24T12:16:18;8.15;;;2.70;;
19621;SDS011;9958;33.196;-97.114;2022-10-24T12:18:57;5.38;;;2.67;;
19621;SDS011;9958;33.196;-97.114;2022-10-24T12:21:33;4.53;;;2.42;;
19621;SDS011;9958;33.196;-97.114;2022-10-24T12:24:05;4.95;;;2.80;;
19621;SDS011;9958;33.196;-97.114;2022-10-24T12:26:54;8.35;;;2.75;;
19621;SDS011;9958;33.196;-97.114;2022-10-24T12:29:25;3.88;;;2.33;;
19621;SDS011;9958;33.196;-97.114;2022-10-24T12:31:56;5.78;;;2.70;;
19621;SDS011;9958;33.196;-97.114;2022-10-24T12:37:32;4.55;;;2.50;;
19621;SDS011;9958;33.196;-97.114;2022-10-24T12:45:57;4.15;;;2.00;;
19621;SDS011;9958;33.196;-97.114;2022-10-24T12:48:30;5.45;;;2.67;;
19621;SDS011;9958;33.196;-97.114;2022-10-24T12:53:59;4.50;;;2.60;;
19621;SDS011;9958;33.196;-97.114;2022-10-24T12:59:45;4.43;;;2.38;;
19621;SDS011;9958;33.196;-97.114;2022-10-24T13:08:28;7.85;;;2.80;;
19621;SDS011;9958;33.196;-97.114;2022-10-24T13:11:11;5.70;;;2.63;;
19621;SDS011;9958;33.196;-97.114;2022-10-24T13:13:56;3.03;;;2.22;;
19621;SDS011;9958;33.196;-97.114;2022-10-24T13:16:41;4.07;;;2.30;;
19621;SDS011;9958;33.196;-97.114;2022-10-24T13:19:17;5.30;;;2.50;;
19621;SDS011;9958;33.196;-97.114;2022-10-24T13:21:48;6.80;;;2.40;;
19621;SDS011;9958;33.196;-97.114;2022-10-24T13:24:21;3.80;;;2.15;;
19621;SDS011;9958;33.196;-97.114;2022-10-24T13:27:21;2.80;;;2.20;;
19621;SDS011;9958;33.196;-97.114;2022-10-24T13:30:03;2.88;;;2.10;;
19621;SDS011;9958;33.196;-97.114;2022-10-24T13:32:50;3.55;;;2.30;;
19621;SDS011;9958;33.196;-97.114;2022-10-24T13:35:33;2.70;;;2.08;;
19621;SDS011;9958;33.196;-97.114;2022-10-24T13:38:01;5.70;;;2.10;;
19621;SDS011;9958;33.196;-97.114;2022-10-24T13:40:31;4.65;;;2.10;;
19621;SDS011;9958;33.196;-97.114;2022-10-24T13:43:01;2.83;;;2.15;;
19621;SDS011;9958;33.196;-97.114;2022-10-24T13:45:38;7.63;;;2.40;;
19621;SDS011;9958;33.196;-97.114;2022-10-24T13:48:13;7.68;;;2.30;;
19621;SDS011;9958;33.196;-97.114;2022-10-24T13:50:45;2.92;;;1.92;;
19621;SDS011;9958;33.196;-97.114;2022-10-24T13:53:17;3.33;;;1.88;;
19621;SDS011;9958;33.196;-97.114;2022-10-24T13:55:48;2.83;;;2.00;;
19621;SDS011;9958;33.196;-97.114;2022-10-24T13:58:18;5.40;;;2.33;;
19621;SDS011;9958;33.196;-97.114;2022-10-24T14:00:52;2.88;;;1.95;;
19621;SDS011;9958;33.196;-97.114;2022-10-24T14:03:25;3.78;;;1.90;;
19621;SDS011;9958;33.196;-97.114;2022-10-24T14:05:59;3.13;;;2.30;;
19621;SDS011;9958;33.196;-97.114;2022-10-24T14:08:29;3.47;;;1.98;;
19621;SDS011;9958;33.196;-97.114;2022-10-24T14:11:00;3.08;;;2.00;;
19621;SDS011;9958;33.196;-97.114;2022-10-24T14:13:32;3.88;;;1.70;;
19621;SDS011;9958;33.196;-97.114;2022-10-24T14:16:03;3.40;;;1.90;;
19621;SDS011;9958;33.196;-97.114;2022-10-24T14:18:35;3.92;;;1.95;;
19621;SDS011;9958;33.196;-97.114;2022-10-24T14:21:14;4.03;;;1.75;;
19621;SDS011;9958;33.196;-97.114;2022-10-24T14:23:52;1.98;;;1.48;;
19621;SDS011;9958;33.196;-97.114;2022-10-24T14:26:22;3.85;;;1.88;;
19621;SDS011;9958;33.196;-97.114;2022-10-24T14:28:52;3.58;;;1.55;;
19621;SDS011;9958;33.196;-97.114;2022-10-24T14:31:23;4.82;;;1.90;;
19621;SDS011;9958;33.196;-97.114;2022-10-24T14:33:58;2.78;;;1.65;;
19621;SDS011;9958;33.196;-97.114;2022-10-24T14:36:28;1.77;;;1.60;;
19621;SDS011;9958;33.196;-97.114;2022-10-24T14:39:00;4.38;;;1.67;;
19621;SDS011;9958;33.196;-97.114;2022-10-24T14:41:29;5.18;;;2.08;;
19621;SDS011;9958;33.196;-97.114;2022-10-24T14:43:59;3.72;;;1.80;;
19621;SDS011;9958;33.196;-97.114;2022-10-24T14:46:33;4.22;;;1.75;;
19621;SDS011;9958;33.196;-97.114;2022-10-24T14:51:58;1.75;;;1.40;;
19621;SDS011;9958;33.196;-97.114;2022-10-24T14:54:34;2.38;;;1.58;;
19621;SDS011;9958;33.196;-97.114;2022-10-24T14:57:03;4.78;;;2.33;;
19621;SDS011;9958;33.196;-97.114;2022-10-24T14:59:42;5.32;;;1.80;;
19621;SDS011;9958;33.196;-97.114;2022-10-24T15:02:13;4.57;;;1.70;;
19621;SDS011;9958;33.196;-97.114;2022-10-24T15:04:50;4.00;;;1.90;;
19621;SDS011;9958;33.196;-97.114;2022-10-24T15:07:28;5.00;;;1.90;;
19621;SDS011;9958;33.196;-97.114;2022-10-24T15:12:51;6.30;;;2.42;;
19621;SDS011;9958;33.196;-97.114;2022-10-24T15:15:25;5.38;;;2.22;;
19621;SDS011;9958;33.196;-97.114;2022-10-24T15:17:56;5.72;;;1.80;;
19621;SDS011;9958;33.196;-97.114;2022-10-24T15:20:27;2.67;;;1.67;;
19621;SDS011;9958;33.196;-97.114;2022-10-24T15:23:00;3.25;;;2.00;;
19621;SDS011;9958;33.196;-97.114;2022-10-24T15:25:30;6.10;;;2.10;;
19621;SDS011;9958;33.196;-97.114;2022-10-24T15:28:01;3.85;;;1.90;;
19621;SDS011;9958;33.196;-97.114;2022-10-24T15:30:31;5.85;;;2.58;;